createdAt,value
2022-10-02T00:02:49.167Z,4.30
2022-10-02T00:05:38.891Z,4.28
2022-10-02T00:08:28.502Z,4.10
2022-10-02T00:11:19.821Z,4.10
2022-10-02T00:14:06.205Z,4.03
2022-10-02T00:16:53.209Z,3.58
2022-10-02T00:19:38.379Z,3.55
2022-10-02T00:22:42.495Z,3.05
2022-10-02T00:25:32.444Z,3.30
2022-10-02T00:28:23.966Z,3.50
2022-10-02T00:31:23.320Z,3.03
2022-10-02T00:34:22.002Z,3.55
2022-10-02T00:37:14.193Z,3.00
2022-10-02T00:40:23.200Z,3.75
2022-10-02T00:43:20.050Z,2.97
2022-10-02T00:46:33.772Z,3.15
2022-10-02T00:49:34.177Z,2.80
2022-10-02T00:52:37.958Z,2.80
2022-10-02T00:55:34.958Z,2.80
2022-10-02T00:58:33.153Z,2.83
2022-10-02T01:01:21.826Z,2.72
2022-10-02T01:04:10.487Z,2.50
2022-10-02T01:06:54.412Z,2.55
2022-10-02T01:09:40.700Z,1.73
2022-10-02T01:12:25.584Z,2.38
2022-10-02T01:15:13.595Z,1.90
2022-10-02T01:17:58.005Z,2.08
2022-10-02T01:20:44.866Z,2.22
2022-10-02T01:23:35.004Z,2.30
2022-10-02T01:26:20.462Z,2.38
2022-10-02T01:29:04.236Z,1.90
2022-10-02T01:31:47.982Z,2.15
2022-10-02T01:34:33.878Z,1.92
2022-10-02T01:37:17.825Z,1.38
2022-10-02T01:40:06.847Z,1.95
2022-10-02T01:42:52.480Z,1.92
2022-10-02T01:45:52.548Z,1.50
2022-10-02T01:48:46.219Z,1.33
2022-10-02T01:51:44.985Z,1.95
2022-10-02T01:54:53.061Z,1.70
2022-10-02T01:57:55.457Z,1.80
2022-10-02T02:00:48.145Z,1.80
2022-10-02T02:03:41.230Z,2.00
2022-10-02T02:06:31.940Z,1.95
2022-10-02T02:09:20.524Z,1.90
2022-10-02T02:12:12.931Z,1.73
2022-10-02T02:15:04.483Z,1.85
2022-10-02T02:17:53.611Z,2.08
2022-10-02T02:20:43.952Z,1.98
2022-10-02T02:23:31.998Z,2.25
2022-10-02T02:26:18.889Z,3.30
2022-10-02T02:29:05.963Z,2.88
2022-10-02T02:31:55.483Z,2.03
2022-10-02T02:34:44.832Z,1.60
2022-10-02T02:37:33.164Z,1.58
2022-10-02T02:40:19.790Z,2.08
2022-10-02T02:43:09.051Z,1.70
2022-10-02T02:45:57.552Z,2.25
2022-10-02T02:48:47.082Z,2.13
2022-10-02T02:51:36.897Z,2.30
2022-10-02T02:54:24.966Z,1.55
2022-10-02T02:57:10.525Z,2.00
2022-10-02T02:59:57.748Z,1.92
2022-10-02T03:02:41.552Z,2.33
2022-10-02T03:05:27.798Z,2.60
2022-10-02T03:08:19.751Z,2.63
2022-10-02T03:11:13.236Z,2.58
2022-10-02T03:14:06.176Z,2.70
2022-10-02T03:16:58.524Z,3.22
2022-10-02T03:19:49.266Z,2.92
2022-10-02T03:22:44.168Z,2.65
2022-10-02T03:25:32.103Z,2.70
2022-10-02T03:28:43.561Z,2.28
2022-10-02T03:31:29.687Z,2.78
2022-10-02T03:34:14.124Z,2.80
2022-10-02T03:36:58.079Z,2.40
2022-10-02T03:39:44.339Z,2.78
2022-10-02T03:42:33.341Z,2.65
2022-10-02T03:45:33.016Z,2.30
2022-10-02T03:48:21.106Z,2.80
2022-10-02T03:51:05.061Z,2.80
2022-10-02T03:53:48.794Z,2.50
2022-10-02T03:56:41.622Z,2.58
2022-10-02T03:59:40.077Z,3.22
2022-10-02T04:02:32.959Z,1.80
2022-10-02T04:05:25.169Z,2.22
2022-10-02T04:08:17.901Z,2.15
2022-10-02T04:11:08.734Z,1.92
2022-10-02T04:14:00.339Z,2.22
2022-10-02T04:16:52.180Z,2.40
2022-10-02T04:19:43.451Z,2.70
2022-10-02T04:22:34.679Z,2.05
2022-10-02T04:25:21.051Z,2.70
2022-10-02T04:28:09.116Z,2.42
2022-10-02T04:30:55.177Z,2.33
2022-10-02T04:33:39.134Z,2.60
2022-10-02T04:36:39.406Z,2.40
2022-10-02T04:39:45.903Z,2.40
2022-10-02T04:42:44.061Z,2.65
2022-10-02T04:45:55.266Z,2.80
2022-10-02T04:49:03.781Z,2.15
2022-10-02T04:52:01.234Z,2.40
2022-10-02T04:55:08.136Z,3.05
2022-10-02T04:58:07.505Z,2.72
2022-10-02T05:01:02.539Z,2.60
2022-10-02T05:04:19.253Z,2.67
2022-10-02T05:07:16.388Z,2.88
2022-10-02T05:10:09.367Z,3.05
2022-10-02T05:13:05.354Z,2.90
2022-10-02T05:16:07.048Z,2.53
2022-10-02T05:19:19.114Z,3.28
2022-10-02T05:22:24.390Z,3.13
2022-10-02T05:25:24.362Z,3.03
2022-10-02T05:28:40.493Z,2.92
2022-10-02T05:31:35.849Z,2.88
2022-10-02T05:34:36.406Z,2.92
2022-10-02T05:37:34.643Z,2.78
2022-10-02T05:40:25.943Z,2.40
2022-10-02T05:43:14.195Z,2.08
2022-10-02T05:46:00.695Z,2.50
2022-10-02T05:48:48.014Z,2.40
2022-10-02T05:51:42.786Z,2.58
2022-10-02T05:54:35.775Z,2.60
2022-10-02T05:57:27.401Z,2.28
2022-10-02T06:00:23.312Z,2.28
2022-10-02T06:03:16.497Z,1.92
2022-10-02T06:06:04.166Z,2.13
2022-10-02T06:08:56.491Z,1.65
2022-10-02T06:11:45.723Z,1.65
2022-10-02T06:14:35.429Z,1.70
2022-10-02T06:17:25.942Z,1.85
2022-10-02T06:20:19.071Z,1.50
2022-10-02T06:23:08.739Z,1.90
2022-10-02T06:25:57.420Z,1.70
2022-10-02T06:28:45.206Z,2.03
2022-10-02T06:31:39.407Z,2.00
2022-10-02T06:34:24.456Z,1.70
2022-10-02T06:37:26.428Z,2.17
2022-10-02T06:40:35.825Z,1.95
2022-10-02T06:43:42.030Z,1.77
2022-10-02T06:46:34.443Z,1.83
2022-10-02T06:49:32.831Z,1.77
2022-10-02T06:52:28.644Z,1.58
2022-10-02T06:55:38.754Z,1.60
2022-10-02T06:58:45.441Z,2.10
2022-10-02T07:01:39.952Z,1.75
2022-10-02T07:04:46.807Z,1.90
2022-10-02T07:07:43.254Z,1.88
2022-10-02T07:10:35.783Z,1.75
2022-10-02T07:13:32.653Z,1.92
2022-10-02T07:16:32.063Z,2.40
2022-10-02T07:19:31.456Z,2.38
2022-10-02T07:22:44.657Z,2.22
2022-10-02T07:25:45.254Z,2.10
2022-10-02T07:28:38.132Z,2.67
2022-10-02T07:31:34.578Z,2.58
2022-10-02T07:34:34.231Z,2.90
2022-10-02T07:37:27.944Z,3.00
2022-10-02T07:40:32.335Z,2.83
2022-10-02T07:43:29.247Z,3.03
2022-10-02T07:46:20.613Z,7.47
2022-10-02T07:49:21.201Z,3.22
2022-10-02T07:52:17.901Z,2.90
2022-10-02T07:55:16.084Z,2.22
2022-10-02T07:58:07.107Z,3.00
2022-10-02T08:00:55.794Z,2.38
2022-10-02T08:03:46.600Z,5.13
2022-10-02T08:06:33.045Z,2.92
2022-10-02T08:09:24.064Z,3.03
2022-10-02T08:12:21.790Z,3.15
2022-10-02T08:15:08.388Z,2.83
2022-10-02T08:17:58.703Z,2.67
2022-10-02T08:20:50.615Z,2.55
2022-10-02T08:23:39.026Z,2.55
2022-10-02T08:26:31.787Z,2.70
2022-10-02T08:29:22.508Z,2.20
2022-10-02T08:32:11.578Z,2.15
2022-10-02T08:34:56.213Z,1.90
2022-10-02T08:37:52.260Z,1.90
2022-10-02T08:41:08.626Z,1.65
2022-10-02T08:44:22.906Z,1.90
2022-10-02T08:47:44.114Z,1.60
2022-10-02T08:51:17.784Z,1.73
2022-10-02T08:54:42.781Z,1.50
2022-10-02T08:58:11.032Z,2.22
2022-10-02T09:01:06.848Z,1.80
2022-10-02T09:04:15.499Z,1.55
2022-10-02T09:07:35.364Z,1.80
2022-10-02T09:10:51.673Z,1.52
2022-10-02T09:14:11.164Z,1.67
2022-10-02T09:17:16.930Z,2.13
2022-10-02T09:20:22.582Z,1.88
2022-10-02T09:23:41.484Z,1.60
2022-10-02T09:26:37.643Z,1.50
2022-10-02T09:30:14.557Z,1.40
2022-10-02T09:33:40.441Z,1.63
2022-10-02T09:37:08.665Z,1.67
2022-10-02T09:40:33.028Z,1.52
2022-10-02T09:43:42.377Z,1.20
2022-10-02T09:47:04.764Z,1.35
2022-10-02T09:50:34.897Z,2.05
2022-10-02T09:53:59.516Z,1.30
2022-10-02T09:57:13.269Z,1.15
2022-10-02T10:00:12.984Z,1.40
2022-10-02T10:03:38.296Z,1.38
2022-10-02T10:06:39.315Z,1.60
2022-10-02T10:10:02.151Z,1.90
2022-10-02T10:13:26.579Z,1.55
2022-10-02T10:17:05.810Z,1.27
2022-10-02T10:20:25.765Z,1.20
2022-10-02T10:23:40.369Z,1.40
2022-10-02T10:26:52.815Z,0.85
2022-10-02T10:30:09.859Z,1.20
2022-10-02T10:33:20.128Z,1.15
2022-10-02T10:37:05.469Z,1.10
2022-10-02T10:40:18.723Z,1.23
2022-10-02T10:43:45.219Z,1.50
2022-10-02T10:46:51.166Z,1.20
2022-10-02T10:50:11.342Z,1.23
2022-10-02T10:53:12.781Z,1.17
2022-10-02T10:56:20.720Z,1.15
2022-10-02T10:59:25.445Z,1.38
2022-10-02T11:02:41.180Z,1.40
2022-10-02T11:05:54.689Z,1.10
2022-10-02T11:08:59.905Z,1.20
2022-10-02T11:11:59.216Z,1.13
2022-10-02T11:15:01.996Z,1.20
2022-10-02T11:18:15.325Z,0.90
2022-10-02T11:21:26.007Z,1.55
2022-10-02T11:24:32.383Z,1.08
2022-10-02T11:27:35.681Z,1.00
2022-10-02T11:30:23.498Z,1.00
2022-10-02T11:33:30.175Z,1.00
2022-10-02T11:36:41.693Z,0.77
2022-10-02T11:39:58.689Z,0.90
2022-10-02T11:43:15.580Z,1.17
2022-10-02T11:46:14.715Z,0.95
2022-10-02T11:49:34.484Z,1.25
2022-10-02T11:52:48.650Z,0.80
2022-10-02T11:55:50.567Z,0.90
2022-10-02T11:58:47.518Z,1.25
2022-10-02T12:01:43.183Z,1.10
2022-10-02T12:04:40.734Z,0.95
2022-10-02T12:07:37.659Z,1.42
2022-10-02T12:10:36.514Z,1.20
2022-10-02T12:13:54.709Z,1.13
2022-10-02T12:16:51.797Z,0.95
2022-10-02T12:20:04.093Z,0.90
2022-10-02T12:23:15.343Z,0.80
2022-10-02T12:26:26.408Z,1.10
2022-10-02T12:29:25.438Z,0.80
2022-10-02T12:32:23.180Z,0.73
2022-10-02T12:35:21.281Z,0.90
2022-10-02T12:38:17.371Z,1.13
2022-10-02T12:41:09.230Z,0.68
2022-10-02T12:44:27.448Z,0.77
2022-10-02T12:47:32.236Z,0.95
2022-10-02T12:50:25.813Z,1.10
2022-10-02T12:53:37.282Z,0.80
2022-10-02T12:56:54.984Z,0.80
2022-10-02T12:59:50.466Z,0.70
2022-10-02T13:03:19.340Z,0.80
2022-10-02T13:06:25.827Z,0.70
2022-10-02T13:09:21.020Z,1.00
2022-10-02T13:12:17.769Z,0.82
2022-10-02T13:15:33.806Z,0.93
2022-10-02T13:18:34.950Z,0.70
2022-10-02T13:21:26.770Z,0.82
2022-10-02T13:24:24.803Z,0.80
2022-10-02T13:27:20.700Z,0.65
2022-10-02T13:30:14.219Z,0.80
2022-10-02T13:33:10.834Z,0.70
2022-10-02T13:36:05.397Z,0.70
2022-10-02T13:39:10.564Z,0.80
2022-10-02T13:42:07.676Z,0.70
2022-10-02T13:45:02.402Z,0.60
2022-10-02T13:47:58.992Z,0.80
2022-10-02T13:50:50.969Z,0.70
2022-10-02T13:53:52.609Z,0.80
2022-10-02T13:56:46.318Z,0.60
2022-10-02T13:59:52.924Z,0.80
2022-10-02T14:02:49.696Z,0.80
2022-10-02T14:05:44.028Z,0.88
2022-10-02T14:08:49.037Z,0.70
2022-10-02T14:11:44.235Z,0.60
2022-10-02T14:14:41.183Z,0.80
2022-10-02T14:17:34.582Z,1.20
2022-10-02T14:20:28.366Z,0.73
2022-10-02T14:23:30.252Z,0.60
2022-10-02T14:26:26.873Z,0.80
2022-10-02T14:29:27.638Z,0.77
2022-10-02T14:32:36.580Z,0.88
2022-10-02T14:35:36.274Z,0.75
2022-10-02T14:38:54.915Z,0.50
2022-10-02T14:41:55.301Z,0.40
2022-10-02T14:45:05.305Z,0.60
2022-10-02T14:48:07.803Z,0.65
2022-10-02T14:51:16.240Z,0.50
2022-10-02T14:54:19.905Z,0.50
2022-10-02T14:57:28.033Z,0.80
2022-10-02T15:00:20.170Z,0.63
2022-10-02T15:03:37.619Z,0.73
2022-10-02T15:06:28.627Z,0.80
2022-10-02T15:09:20.842Z,0.68
2022-10-02T15:12:19.895Z,0.80
2022-10-02T15:15:10.401Z,0.57
2022-10-02T15:18:25.201Z,0.90
2022-10-02T15:21:27.047Z,0.50
2022-10-02T15:24:40.786Z,0.50
2022-10-02T15:27:28.028Z,0.70
2022-10-02T15:30:21.584Z,1.05
2022-10-02T15:33:17.516Z,0.40
2022-10-02T15:36:40.689Z,0.50
2022-10-02T15:39:57.102Z,0.47
2022-10-02T15:42:57.987Z,0.88
2022-10-02T15:46:12.404Z,0.60
2022-10-02T15:49:02.219Z,0.60
2022-10-02T15:52:00.330Z,0.50
2022-10-02T15:54:57.907Z,0.60
2022-10-02T15:57:54.858Z,0.65
2022-10-02T16:01:00.921Z,0.60
2022-10-02T16:03:49.178Z,0.68
2022-10-02T16:06:53.663Z,0.70
2022-10-02T16:09:51.055Z,0.70
2022-10-02T16:12:46.524Z,0.60
2022-10-02T16:15:48.027Z,0.60
2022-10-02T16:18:58.118Z,0.50
2022-10-02T16:22:01.355Z,0.70
2022-10-02T16:25:08.589Z,0.60
2022-10-02T16:28:14.437Z,0.95
2022-10-02T16:31:18.551Z,0.47
2022-10-02T16:34:10.140Z,0.70
2022-10-02T16:36:58.369Z,0.55
2022-10-02T16:40:03.147Z,0.93
2022-10-02T16:42:58.545Z,0.70
2022-10-02T16:45:57.354Z,0.60
2022-10-02T16:48:52.839Z,0.52
2022-10-02T16:51:50.552Z,0.57
2022-10-02T16:54:42.429Z,0.95
2022-10-02T16:57:49.715Z,0.93
2022-10-02T17:00:38.504Z,0.60
2022-10-02T17:03:29.455Z,0.60
2022-10-02T17:06:26.747Z,1.65
2022-10-02T17:09:17.201Z,1.23
2022-10-02T17:12:10.009Z,0.70
2022-10-02T17:15:00.567Z,1.10
2022-10-02T17:17:59.919Z,0.82
2022-10-02T17:20:48.620Z,0.70
2022-10-02T17:23:43.880Z,1.30
2022-10-02T17:26:37.963Z,0.95
2022-10-02T17:29:28.900Z,0.73
2022-10-02T17:32:12.691Z,0.82
2022-10-02T17:34:59.988Z,0.93
2022-10-02T17:38:09.901Z,0.70
2022-10-02T17:41:06.328Z,0.88
2022-10-02T17:43:58.675Z,1.00
2022-10-02T17:47:21.273Z,0.70
2022-10-02T17:50:26.198Z,0.80
2022-10-02T17:53:46.882Z,0.77
2022-10-02T17:56:55.929Z,0.85
2022-10-02T17:59:59.056Z,0.60
2022-10-02T18:03:07.663Z,0.68
2022-10-02T18:05:59.549Z,0.60
2022-10-02T18:09:19.264Z,0.70
2022-10-02T18:12:31.038Z,1.20
2022-10-02T18:15:28.306Z,0.68
2022-10-02T18:18:31.433Z,0.80
2022-10-02T18:21:33.887Z,0.75
2022-10-02T18:24:41.781Z,0.60
2022-10-02T18:27:53.435Z,0.60
2022-10-02T18:30:46.263Z,0.82
2022-10-02T18:34:17.211Z,0.90
2022-10-02T18:37:18.879Z,0.82
2022-10-02T18:40:18.642Z,0.65
2022-10-02T18:43:32.751Z,0.70
2022-10-02T18:46:26.797Z,0.80
2022-10-02T18:49:48.292Z,0.70
2022-10-02T18:52:53.947Z,0.60
2022-10-02T18:56:03.482Z,0.52
2022-10-02T18:59:02.948Z,0.70
2022-10-02T19:02:02.473Z,1.27
2022-10-02T19:05:03.488Z,0.70
2022-10-02T19:07:53.210Z,0.70
2022-10-02T19:10:44.983Z,1.10
2022-10-02T19:13:31.280Z,0.70
2022-10-02T19:16:25.471Z,0.70
2022-10-02T19:19:23.100Z,0.80
2022-10-02T19:22:17.809Z,0.80
2022-10-02T19:25:08.331Z,0.55
2022-10-02T19:27:55.373Z,0.80
2022-10-02T19:30:43.474Z,0.60
2022-10-02T19:33:42.286Z,0.80
2022-10-02T19:36:30.503Z,0.60
2022-10-02T19:39:21.658Z,0.90
2022-10-02T19:42:11.399Z,0.70
2022-10-02T19:44:59.529Z,0.70
2022-10-02T19:47:46.902Z,0.63
2022-10-02T19:50:42.600Z,0.87
2022-10-02T19:53:29.703Z,0.75
2022-10-02T19:56:16.949Z,0.53
2022-10-02T19:59:04.554Z,0.80
2022-10-02T20:01:52.726Z,0.60
2022-10-02T20:04:36.948Z,0.80
2022-10-02T20:07:25.874Z,0.50
2022-10-02T20:10:17.499Z,0.77
2022-10-02T20:13:12.507Z,1.20
2022-10-02T20:16:18.106Z,0.80
2022-10-02T20:19:03.383Z,0.70
2022-10-02T20:21:51.482Z,0.80
2022-10-02T20:24:41.893Z,0.60
2022-10-02T20:27:36.848Z,0.73
2022-10-02T20:30:22.676Z,0.80
2022-10-02T20:33:13.318Z,1.03
2022-10-02T20:36:03.276Z,0.93
2022-10-02T20:38:51.546Z,0.87
2022-10-02T20:41:43.027Z,0.67
2022-10-02T20:44:29.863Z,0.90
2022-10-02T20:47:44.848Z,0.80
2022-10-02T20:50:45.157Z,0.90
2022-10-02T20:54:12.585Z,0.90
2022-10-02T20:58:07.504Z,0.80
2022-10-02T21:01:10.611Z,0.80
2022-10-02T21:04:49.237Z,1.00
2022-10-02T21:08:04.833Z,1.03
2022-10-02T21:11:13.472Z,0.90
2022-10-02T21:14:42.443Z,0.93
2022-10-02T21:18:02.653Z,1.23
2022-10-02T21:21:20.346Z,0.90
2022-10-02T21:24:31.554Z,0.87
2022-10-02T21:27:43.002Z,0.80
2022-10-02T21:30:37.837Z,0.87
2022-10-02T21:33:24.041Z,1.37
2022-10-02T21:36:17.287Z,0.60
2022-10-02T21:39:36.784Z,0.70
2022-10-02T21:43:06.766Z,0.93
2022-10-02T21:46:23.076Z,0.90
2022-10-02T21:49:47.203Z,0.70
2022-10-02T21:53:22.162Z,0.90
2022-10-02T21:56:32.220Z,1.00
2022-10-02T21:59:40.091Z,0.87
2022-10-02T22:03:17.906Z,0.73
2022-10-02T22:06:19.324Z,0.70
2022-10-02T22:09:29.260Z,1.00
2022-10-02T22:12:27.815Z,0.70
2022-10-02T22:15:19.275Z,1.50
2022-10-02T22:18:15.287Z,0.80
2022-10-02T22:21:13.913Z,1.17
2022-10-02T22:24:34.406Z,1.20
2022-10-02T22:27:44.909Z,1.17
2022-10-02T22:30:31.105Z,1.37
2022-10-02T22:33:32.070Z,1.30
2022-10-02T22:36:34.446Z,1.00
2022-10-02T22:39:29.501Z,1.20
2022-10-02T22:42:20.480Z,1.53
2022-10-02T22:45:13.706Z,0.90
2022-10-02T22:48:04.161Z,1.17
2022-10-02T22:50:53.299Z,1.17
2022-10-02T22:53:42.870Z,1.33
2022-10-02T22:56:33.904Z,1.40
2022-10-02T22:59:22.439Z,1.20
2022-10-02T23:02:10.751Z,1.40
2022-10-02T23:05:05.333Z,1.10
2022-10-02T23:07:56.712Z,1.67
2022-10-02T23:10:45.351Z,1.43
2022-10-02T23:13:33.459Z,1.43
2022-10-02T23:16:26.646Z,1.30
2022-10-02T23:19:17.221Z,1.53
2022-10-02T23:22:08.632Z,1.50
2022-10-02T23:25:03.060Z,1.40
2022-10-02T23:27:52.860Z,1.30
2022-10-02T23:30:42.237Z,1.30
2022-10-02T23:33:28.550Z,1.60
2022-10-02T23:36:24.226Z,2.00
2022-10-02T23:39:16.725Z,1.60
2022-10-02T23:42:07.099Z,1.80
2022-10-02T23:44:58.365Z,1.83
2022-10-02T23:47:54.826Z,2.03
2022-10-02T23:50:47.142Z,3.07
2022-10-02T23:53:55.498Z,1.50
2022-10-02T23:57:02.818Z,2.30
